Aeroporto :
LOGIN :

Iscrizione | Disclaimer

   EN    FR    IT 

 










Sommario :    VFR   VFR Marginale   IFR   IFR Intensivo   IFR Molto Intensivo
Visibilità : 
Base nubi : 
>= 8 km
>= 3000ft
5 / 8 km
1000 / 3000 ft
1500m / 5 km
500 / 1000 ft
800 / 1500m
200 / 500 ft
< 800m
< 200 ft
Simboli :   Temporali  Nebbia  Neve Forte  Precipitazioni Forti  Vento > 20 kt
SIGMETs :   Varie  Temporali  Ghiacco  Turbolenza  Onda orograficha  Ceneri Vulcaniche






- Altitudine del aeroporto : 121 ft
- Codice IATA : HUY


EGNJ - Humberside

ULTIMO METAR :
  • 280150Z AUTO 09005KT 050V110 9999 OVC006/// 11/09 Q1037

METARs OBSOLETI :
  • 280120Z AUTO 10005KT 060V140 9999 OVC006/// 11/10 Q1037
  • 280050Z AUTO 11005KT 080V140 9999 OVC006/// 11/10 Q1037
  • 280020Z AUTO 07004KT 9999 OVC006/// 12/10 Q1037
  • 272350Z AUTO VRB03KT 9999 OVC006/// 12/11 Q1038
  • 272320Z AUTO VRB03KT 9999 OVC004/// 11/10 Q1038

TAF TAF EGNJ
Valido dal 27 a 21 ore il 28 a 06 ore UTC


271956Z 2721/2806 05004KT 9999 SCT006
TEMPO 2721/2806 BKN006
PROB40
TEMPO 2721/2806 6000 BKN004
ATIS : +44 1652 682 020



MetMap, La meteo Aeronautica in un colpo d'occhio ! - Copyright ORBIFLY Dicembre 2007 - Disclaimer

ORBIFLY MET'MAP TEAM :

Programmazione e sviluppo : Alexandra Zaïnal
Concezione : Baudouin d'Aumeries
Aiuto per la programmazione : Marc-Olivier Méhu
Supporto tecnico e logistico : Manuel Goepfert
Aiuto per la traduzione : Arnaldo La Scala

Contatto : metmap@orbifly.com




FONTI E CREDITI :

   NOAA